createdAt,value
2024-02-13T00:00:01.277Z,6.60
2024-02-13T00:10:01.098Z,7.05
2024-02-13T00:20:01.342Z,6.47
2024-02-13T00:30:02.965Z,7.03
2024-02-13T00:40:01.259Z,6.94
2024-02-13T00:50:01.116Z,6.50
2024-02-13T01:00:01.160Z,6.71
2024-02-13T01:10:01.087Z,6.62
2024-02-13T01:20:01.326Z,6.42
2024-02-13T01:30:02.826Z,7.08
2024-02-13T01:40:00.251Z,6.39
2024-02-13T01:50:01.278Z,7.09
2024-02-13T02:00:02.019Z,6.62
2024-02-13T02:10:01.102Z,6.77
2024-02-13T02:20:01.080Z,6.86
2024-02-13T02:30:01.023Z,7.57
2024-02-13T02:40:01.004Z,7.03
2024-02-13T02:50:01.329Z,7.29
2024-02-13T03:00:01.026Z,7.40
2024-02-13T03:10:01.040Z,7.11
2024-02-13T03:20:02.041Z,7.21
2024-02-13T03:30:02.798Z,7.27
2024-02-13T03:40:01.898Z,7.58
2024-02-13T03:50:01.109Z,7.77
2024-02-13T04:00:01.272Z,7.28
2024-02-13T04:10:01.490Z,6.73
2024-02-13T04:20:01.063Z,6.68
2024-02-13T04:30:01.576Z,6.62
2024-02-13T04:40:01.234Z,6.27
2024-02-13T04:50:01.386Z,7.37
2024-02-13T05:00:01.956Z,6.56
2024-02-13T05:10:01.270Z,7.72
2024-02-13T05:20:01.459Z,7.16
2024-02-13T05:30:01.339Z,7.10
2024-02-13T05:40:01.439Z,7.13
2024-02-13T05:50:01.123Z,6.26
2024-02-13T06:00:01.576Z,7.67
2024-02-13T06:10:01.102Z,7.27
2024-02-13T06:20:01.081Z,7.60
2024-02-13T06:30:01.338Z,7.35
2024-02-13T06:40:01.049Z,6.87
2024-02-13T06:50:01.428Z,6.77
2024-02-13T07:00:04.207Z,7.28
2024-02-13T07:10:02.133Z,7.17
2024-02-13T07:20:01.154Z,6.81
2024-02-13T07:30:01.515Z,7.39
2024-02-13T07:40:00.221Z,7.29
2024-02-13T07:50:01.076Z,6.68
2024-02-13T08:00:02.167Z,7.24
2024-02-13T08:10:02.341Z,7.52
2024-02-13T08:20:01.963Z,6.82
2024-02-13T08:30:01.688Z,6.55
2024-02-13T08:40:00.972Z,7.21
2024-02-13T08:50:01.615Z,7.97
2024-02-13T09:00:01.063Z,7.26
2024-02-13T09:10:01.871Z,8.25
2024-02-13T09:20:01.070Z,8.07
2024-02-13T09:30:01.170Z,7.75
2024-02-13T09:40:01.984Z,7.82
2024-02-13T09:50:02.409Z,8.90
2024-02-13T10:00:02.059Z,8.17
2024-02-13T10:10:01.310Z,8.37
2024-02-13T10:20:01.064Z,9.55
2024-02-13T10:30:02.029Z,9.17
2024-02-13T10:40:01.920Z,8.75
2024-02-13T10:50:01.563Z,9.32
2024-02-13T11:00:01.098Z,9.35
2024-02-13T11:10:01.362Z,9.76
2024-02-13T11:20:01.349Z,9.81
2024-02-13T11:30:01.920Z,10.46
2024-02-13T11:40:00.972Z,10.76
2024-02-13T11:50:01.200Z,12.85
2024-02-13T12:00:01.389Z,12.76
2024-02-13T12:10:01.118Z,11.00
2024-02-13T12:20:02.473Z,10.34
2024-02-13T12:30:01.516Z,11.02
2024-02-13T12:40:01.073Z,11.87
2024-02-13T12:50:01.099Z,12.12
2024-02-13T13:00:01.670Z,13.80
2024-02-13T13:10:01.094Z,13.30
2024-02-13T13:20:01.152Z,11.91
2024-02-13T13:30:01.136Z,13.65
2024-02-13T13:40:01.265Z,12.24
2024-02-13T13:50:01.037Z,10.39
2024-02-13T14:00:01.207Z,10.68
2024-02-13T14:10:01.924Z,10.28
2024-02-13T14:20:01.073Z,11.82
2024-02-13T14:30:01.435Z,10.58
2024-02-13T14:40:01.214Z,10.20
2024-02-13T14:50:00.509Z,11.21
2024-02-13T15:00:03.644Z,11.31
2024-02-13T15:10:02.024Z,10.56
2024-02-13T15:20:01.415Z,10.56
2024-02-13T15:30:01.109Z,10.56
2024-02-13T15:40:01.151Z,10.56
2024-02-13T15:50:01.306Z,10.56
2024-02-13T16:00:01.603Z,10.56
2024-02-13T16:10:01.253Z,10.56
2024-02-13T16:20:02.247Z,10.56
2024-02-13T16:30:00.313Z,10.56
2024-02-13T16:40:01.062Z,10.56
2024-02-13T16:50:02.009Z,10.56
2024-02-13T17:00:01.484Z,10.56
2024-02-13T17:10:01.968Z,10.56
2024-02-13T17:20:01.560Z,10.56
2024-02-13T17:30:00.538Z,10.56
2024-02-13T17:40:01.752Z,10.56
2024-02-13T17:50:01.368Z,10.56
2024-02-13T18:00:01.497Z,10.56
2024-02-13T18:10:02.072Z,10.56
2024-02-13T18:20:01.540Z,10.56
2024-02-13T18:30:01.611Z,10.56
2024-02-13T18:40:01.351Z,10.56
2024-02-13T18:50:01.984Z,10.56
2024-02-13T19:00:02.580Z,10.56
2024-02-13T19:10:01.140Z,10.56
2024-02-13T19:20:01.934Z,10.56
2024-02-13T19:30:01.201Z,10.56
2024-02-13T19:40:01.963Z,10.56
2024-02-13T19:50:01.237Z,10.56
2024-02-13T20:00:01.990Z,10.56
2024-02-13T20:10:01.076Z,10.56
2024-02-13T20:20:01.224Z,10.56
2024-02-13T20:30:01.752Z,10.56
2024-02-13T20:40:02.004Z,10.56
2024-02-13T20:50:01.141Z,10.56
2024-02-13T21:00:01.810Z,10.56
2024-02-13T21:10:01.087Z,10.56
2024-02-13T21:20:01.569Z,6.83
2024-02-13T21:30:00.313Z,7.40
2024-02-13T21:40:01.007Z,7.75
2024-02-13T21:50:01.976Z,7.94
2024-02-13T22:00:01.577Z,8.84
2024-02-13T22:10:01.902Z,8.18
2024-02-13T22:20:00.510Z,7.92
2024-02-13T22:30:01.586Z,8.02
2024-02-13T22:40:01.515Z,7.63
2024-02-13T22:50:01.635Z,7.02
2024-02-13T23:00:02.039Z,7.03
2024-02-13T23:10:01.996Z,8.04
2024-02-13T23:20:01.079Z,7.88
2024-02-13T23:30:01.557Z,7.87
2024-02-13T23:40:01.050Z,8.08
2024-02-13T23:50:01.527Z,8.43
